Time;durP1;ratioP1;P1;durP2;ratioP2;P2;SDS_P1;SDS_P2;PMS_P1;PMS_P2;Temp;Humidity;BMP_temperature;BMP_pressure;BME280_temperature;BME280_humidity;BME280_pressure;Samples;Min_cycle;Max_cycle;Signal;HPM_P1;HPM_P2
2023/12/22 00:02:03;;;;;;;5.10;1.35;;;;;;;;;;5078995;28;20080;-82
2023/12/22 00:04:30;;;;;;;4.65;1.30;;;;;;;;;;5072889;28;20087;-82
2023/12/22 00:06:56;;;;;;;4.95;1.60;;;;;;;;;;5074329;28;20057;-83
2023/12/22 00:09:24;;;;;;;3.92;1.25;;;;;;;;;;5084860;28;20082;-82
2023/12/22 00:11:51;;;;;;;5.10;1.20;;;;;;;;;;5081421;28;20075;-82
2023/12/22 00:14:18;;;;;;;4.00;1.80;;;;;;;;;;5096278;28;20051;-81
2023/12/22 00:16:45;;;;;;;4.50;1.58;;;;;;;;;;5096387;28;20044;-82
2023/12/22 00:19:11;;;;;;;5.97;1.58;;;;;;;;;;5088358;28;20109;-82
2023/12/22 00:21:38;;;;;;;6.43;1.30;;;;;;;;;;5094037;28;20040;-82
2023/12/22 00:24:05;;;;;;;5.15;1.20;;;;;;;;;;5089536;28;20063;-81
2023/12/22 00:26:33;;;;;;;4.50;1.42;;;;;;;;;;5089645;28;20048;-81
2023/12/22 00:29:00;;;;;;;5.57;1.58;;;;;;;;;;5091257;28;20052;-82
2023/12/22 00:31:26;;;;;;;4.03;1.13;;;;;;;;;;5097833;28;20073;-82
2023/12/22 00:33:53;;;;;;;4.65;1.30;;;;;;;;;;5096260;28;20047;-82
2023/12/22 00:36:22;;;;;;;3.42;1.30;;;;;;;;;;5096754;28;20075;-82
2023/12/22 00:38:49;;;;;;;6.47;1.50;;;;;;;;;;5096612;28;20070;-82
2023/12/22 00:41:16;;;;;;;2.85;1.00;;;;;;;;;;5093533;28;20117;-81
2023/12/22 00:43:44;;;;;;;3.75;1.70;;;;;;;;;;5090465;28;20044;-82
2023/12/22 00:46:10;;;;;;;4.47;1.10;;;;;;;;;;5090428;28;20423;-82
2023/12/22 00:48:38;;;;;;;3.38;1.50;;;;;;;;;;5096386;28;20446;-82
2023/12/22 00:51:06;;;;;;;5.63;1.45;;;;;;;;;;5093539;28;20048;-82
2023/12/22 00:53:33;;;;;;;5.63;1.67;;;;;;;;;;5095051;28;20082;-82
2023/12/22 00:56:00;;;;;;;7.65;1.38;;;;;;;;;;5092903;28;20091;-83
2023/12/22 00:58:27;;;;;;;6.82;1.60;;;;;;;;;;5096371;28;20463;-82
2023/12/22 01:00:55;;;;;;;7.85;1.98;;;;;;;;;;5091442;28;20052;-82
2023/12/22 01:03:22;;;;;;;3.97;1.65;;;;;;;;;;5098897;28;20051;-83
2023/12/22 01:05:49;;;;;;;4.57;1.10;;;;;;;;;;5094334;28;20044;-82
2023/12/22 01:08:15;;;;;;;2.85;0.98;;;;;;;;;;5094707;28;20071;-81
2023/12/22 01:10:42;;;;;;;3.58;0.98;;;;;;;;;;5100836;28;20059;-81
2023/12/22 01:13:09;;;;;;;4.72;1.70;;;;;;;;;;5090588;28;20436;-82
2023/12/22 01:15:35;;;;;;;4.63;1.20;;;;;;;;;;5100054;28;20044;-81
2023/12/22 01:18:04;;;;;;;5.03;1.40;;;;;;;;;;5091474;28;20059;-82
2023/12/22 01:20:36;;;;;;;4.72;1.27;;;;;;;;;;5094217;28;20048;-82
2023/12/22 01:23:03;;;;;;;4.60;1.30;;;;;;;;;;5092702;28;20048;-81
2023/12/22 01:25:30;;;;;;;3.42;1.15;;;;;;;;;;5095941;28;20053;-81
2023/12/22 01:27:57;;;;;;;4.20;1.40;;;;;;;;;;5099322;28;20052;-82
2023/12/22 01:30:23;;;;;;;5.60;1.40;;;;;;;;;;5092333;28;20052;-82
2023/12/22 01:32:50;;;;;;;6.72;1.55;;;;;;;;;;5092183;28;20488;-83
2023/12/22 01:35:18;;;;;;;4.72;1.63;;;;;;;;;;5090540;28;20143;-82
2023/12/22 01:37:47;;;;;;;4.13;1.40;;;;;;;;;;5097043;28;20461;-82
2023/12/22 01:40:14;;;;;;;5.45;1.38;;;;;;;;;;5091982;28;20052;-82
2023/12/22 01:42:40;;;;;;;9.45;1.52;;;;;;;;;;5093589;28;20053;-82
2023/12/22 01:45:08;;;;;;;7.88;1.20;;;;;;;;;;5092714;28;20490;-82
2023/12/22 01:47:36;;;;;;;4.60;1.40;;;;;;;;;;5095304;28;20089;-82
2023/12/22 01:50:03;;;;;;;4.47;1.48;;;;;;;;;;5095896;28;20055;-82
2023/12/22 01:52:31;;;;;;;5.53;1.33;;;;;;;;;;5090295;28;20087;-82
2023/12/22 01:54:58;;;;;;;5.03;1.75;;;;;;;;;;5083750;28;20075;-83
2023/12/22 01:57:25;;;;;;;2.90;1.10;;;;;;;;;;5093720;28;20462;-83
2023/12/22 01:59:52;;;;;;;3.30;1.00;;;;;;;;;;5091820;28;20091;-83
2023/12/22 02:02:19;;;;;;;4.05;1.23;;;;;;;;;;5088545;28;20110;-83
2023/12/22 02:04:46;;;;;;;2.50;1.05;;;;;;;;;;5094306;28;20113;-83
2023/12/22 02:07:13;;;;;;;5.47;1.50;;;;;;;;;;5089550;28;20051;-82
2023/12/22 02:09:41;;;;;;;3.85;0.93;;;;;;;;;;5088375;28;20114;-82
2023/12/22 02:12:08;;;;;;;3.83;1.30;;;;;;;;;;5091754;28;20048;-83
2023/12/22 02:14:35;;;;;;;2.78;1.02;;;;;;;;;;5095237;28;20107;-83
2023/12/22 02:17:10;;;;;;;4.90;0.95;;;;;;;;;;5087380;28;20068;-82
2023/12/22 02:19:43;;;;;;;3.35;1.10;;;;;;;;;;5096069;28;20040;-82
2023/12/22 02:22:11;;;;;;;2.47;1.23;;;;;;;;;;5091393;28;20044;-84
2023/12/22 02:24:39;;;;;;;4.40;1.13;;;;;;;;;;5098009;28;20044;-82
2023/12/22 02:27:22;;;;;;;5.55;1.52;;;;;;;;;;5098220;28;20458;-82
2023/12/22 02:29:54;;;;;;;3.33;1.20;;;;;;;;;;5091451;28;20132;-82
2023/12/22 02:32:24;;;;;;;4.43;1.35;;;;;;;;;;5097347;28;20051;-82
2023/12/22 02:34:54;;;;;;;1.42;0.68;;;;;;;;;;5094776;28;20079;-82
2023/12/22 02:37:22;;;;;;;2.63;1.00;;;;;;;;;;5089973;28;20044;-82
2023/12/22 02:39:50;;;;;;;2.83;1.17;;;;;;;;;;5094051;28;20045;-82
2023/12/22 02:42:18;;;;;;;1.75;1.15;;;;;;;;;;5090656;28;20056;-82
2023/12/22 02:44:45;;;;;;;2.58;1.10;;;;;;;;;;5093045;28;20044;-82
2023/12/22 02:47:11;;;;;;;2.53;0.90;;;;;;;;;;5094541;28;20073;-82
2023/12/22 02:49:38;;;;;;;3.83;1.15;;;;;;;;;;5092092;28;20044;-82
2023/12/22 02:52:06;;;;;;;5.43;1.40;;;;;;;;;;5087906;28;20101;-82
2023/12/22 02:54:33;;;;;;;6.38;1.27;;;;;;;;;;5095181;28;20093;-82
2023/12/22 02:57:01;;;;;;;2.72;0.85;;;;;;;;;;5090617;28;20044;-82
2023/12/22 02:59:28;;;;;;;2.80;1.08;;;;;;;;;;5094566;28;20044;-82
2023/12/22 03:01:55;;;;;;;3.05;0.82;;;;;;;;;;5089452;28;20431;-82
2023/12/22 03:04:22;;;;;;;3.83;0.98;;;;;;;;;;5089431;28;20056;-82
2023/12/22 03:06:48;;;;;;;3.92;0.95;;;;;;;;;;5093683;28;20044;-82
2023/12/22 03:09:15;;;;;;;2.45;1.00;;;;;;;;;;5094471;28;20048;-82
2023/12/22 03:11:42;;;;;;;2.95;0.88;;;;;;;;;;5093310;28;20131;-82
2023/12/22 03:14:11;;;;;;;4.43;1.00;;;;;;;;;;5097746;28;20043;-82
2023/12/22 03:16:37;;;;;;;2.45;0.98;;;;;;;;;;5097565;28;20107;-82
2023/12/22 03:19:04;;;;;;;2.08;1.00;;;;;;;;;;5086871;28;20117;-83
2023/12/22 03:21:31;;;;;;;1.77;0.90;;;;;;;;;;5093208;28;20051;-82
2023/12/22 03:23:57;;;;;;;3.75;1.67;;;;;;;;;;5089694;28;20052;-81
2023/12/22 03:26:24;;;;;;;3.53;0.90;;;;;;;;;;5094356;28;20075;-82
2023/12/22 03:28:51;;;;;;;2.00;0.77;;;;;;;;;;5088332;28;20048;-82
2023/12/22 03:31:19;;;;;;;1.35;0.70;;;;;;;;;;5087809;28;20078;-83
2023/12/22 03:33:45;;;;;;;3.25;0.90;;;;;;;;;;5092995;28;20166;-83
2023/12/22 03:36:12;;;;;;;2.50;0.93;;;;;;;;;;5089247;28;20051;-83
2023/12/22 03:38:39;;;;;;;4.65;1.10;;;;;;;;;;5088219;28;20040;-83
2023/12/22 03:41:06;;;;;;;2.75;0.80;;;;;;;;;;5085676;28;20045;-83
2023/12/22 03:43:33;;;;;;;7.97;1.00;;;;;;;;;;5096102;28;20094;-82
2023/12/22 03:45:59;;;;;;;4.28;1.00;;;;;;;;;;5090247;28;20129;-82
2023/12/22 03:48:27;;;;;;;4.25;1.25;;;;;;;;;;5085714;28;20098;-82
2023/12/22 03:50:54;;;;;;;2.38;1.00;;;;;;;;;;5089341;28;20058;-82
2023/12/22 03:53:21;;;;;;;7.18;1.50;;;;;;;;;;5092460;28;20047;-81
2023/12/22 03:55:47;;;;;;;4.80;1.45;;;;;;;;;;5092714;28;20044;-82
2023/12/22 03:58:14;;;;;;;4.28;1.05;;;;;;;;;;5087013;28;20076;-82
2023/12/22 04:00:41;;;;;;;3.65;1.05;;;;;;;;;;5092174;28;20722;-82
2023/12/22 04:03:08;;;;;;;5.57;1.30;;;;;;;;;;5089223;28;20078;-82
2023/12/22 04:05:36;;;;;;;3.22;1.48;;;;;;;;;;5100014;28;20067;-82
2023/12/22 04:08:03;;;;;;;5.10;1.50;;;;;;;;;;5098925;28;20048;-82
2023/12/22 04:10:29;;;;;;;3.47;1.60;;;;;;;;;;5098917;28;20081;-81
2023/12/22 04:12:56;;;;;;;5.25;1.65;;;;;;;;;;5097035;28;20052;-82
2023/12/22 04:15:23;;;;;;;4.70;1.48;;;;;;;;;;5095710;28;20052;-81
2023/12/22 04:17:50;;;;;;;7.55;1.40;;;;;;;;;;5100524;28;20416;-82
2023/12/22 04:20:17;;;;;;;5.35;1.52;;;;;;;;;;5098356;28;20678;-82
2023/12/22 04:22:45;;;;;;;5.28;1.70;;;;;;;;;;5099392;28;20048;-82
2023/12/22 04:25:11;;;;;;;4.60;1.30;;;;;;;;;;5097922;28;20051;-81
2023/12/22 04:27:38;;;;;;;6.20;1.80;;;;;;;;;;5094073;28;20048;-81
2023/12/22 04:30:06;;;;;;;5.90;1.77;;;;;;;;;;5101305;28;20105;-82
2023/12/22 04:32:33;;;;;;;4.45;1.65;;;;;;;;;;5100148;28;20048;-82
2023/12/22 04:34:59;;;;;;;5.65;1.38;;;;;;;;;;5086092;28;20044;-81
2023/12/22 04:37:26;;;;;;;8.75;1.67;;;;;;;;;;5096895;28;20044;-81
2023/12/22 04:39:54;;;;;;;6.20;2.33;;;;;;;;;;5096756;28;20056;-82
2023/12/22 04:42:21;;;;;;;6.70;1.42;;;;;;;;;;5096779;28;20200;-82
2023/12/22 04:44:48;;;;;;;5.70;1.80;;;;;;;;;;5095246;28;20043;-81
2023/12/22 04:47:15;;;;;;;6.85;1.60;;;;;;;;;;5095831;28;20051;-81
2023/12/22 04:49:42;;;;;;;6.90;1.95;;;;;;;;;;5092755;28;20040;-82
2023/12/22 04:52:09;;;;;;;5.80;1.67;;;;;;;;;;5096107;28;20071;-81
2023/12/22 04:54:36;;;;;;;7.00;1.30;;;;;;;;;;5092321;28;20469;-80
2023/12/22 04:57:04;;;;;;;5.78;1.50;;;;;;;;;;5092342;28;20053;-81
2023/12/22 04:59:31;;;;;;;7.05;2.42;;;;;;;;;;5093609;28;20742;-81
2023/12/22 05:01:58;;;;;;;6.93;1.85;;;;;;;;;;5088889;28;20051;-81
2023/12/22 05:04:25;;;;;;;6.10;2.00;;;;;;;;;;5096776;28;20044;-81
2023/12/22 05:06:52;;;;;;;4.07;1.40;;;;;;;;;;5090367;28;20123;-81
2023/12/22 05:09:18;;;;;;;4.72;1.38;;;;;;;;;;5096397;28;20051;-81
2023/12/22 05:11:45;;;;;;;5.20;1.20;;;;;;;;;;5098698;28;20409;-82
2023/12/22 05:14:13;;;;;;;3.13;1.30;;;;;;;;;;5090499;28;20049;-82
2023/12/22 05:16:40;;;;;;;4.47;1.40;;;;;;;;;;5096129;28;20048;-82
2023/12/22 05:19:07;;;;;;;4.03;1.13;;;;;;;;;;5096863;28;20058;-81
2023/12/22 05:21:33;;;;;;;5.20;1.10;;;;;;;;;;5094158;28;20071;-83
2023/12/22 05:24:00;;;;;;;3.13;1.00;;;;;;;;;;5082073;28;20079;-82
2023/12/22 05:26:30;;;;;;;7.20;1.15;;;;;;;;;;5089595;28;20044;-81
2023/12/22 05:28:56;;;;;;;3.05;0.68;;;;;;;;;;5081424;28;20054;-81
2023/12/22 05:31:25;;;;;;;3.17;0.90;;;;;;;;;;5089010;28;20488;-82
2023/12/22 05:33:51;;;;;;;4.25;1.20;;;;;;;;;;5085370;28;20041;-82
2023/12/22 05:36:18;;;;;;;2.95;0.93;;;;;;;;;;5091256;28;20382;-82
2023/12/22 05:38:45;;;;;;;2.28;0.80;;;;;;;;;;5081330;28;20044;-82
2023/12/22 05:41:12;;;;;;;0.77;0.52;;;;;;;;;;5086554;28;20052;-82
2023/12/22 05:43:39;;;;;;;1.30;0.57;;;;;;;;;;5087243;28;20397;-81
2023/12/22 05:46:05;;;;;;;2.22;0.60;;;;;;;;;;5087647;28;20082;-82
2023/12/22 05:48:35;;;;;;;2.90;0.60;;;;;;;;;;5089591;28;20331;-83
2023/12/22 05:51:03;;;;;;;1.85;0.70;;;;;;;;;;5089375;28;20052;-84
2023/12/22 05:53:29;;;;;;;3.67;0.88;;;;;;;;;;5079851;28;20485;-82
2023/12/22 05:55:56;;;;;;;1.88;0.70;;;;;;;;;;5088331;28;20113;-82
2023/12/22 05:58:23;;;;;;;1.05;0.50;;;;;;;;;;5094490;28;20127;-80
2023/12/22 06:00:50;;;;;;;0.60;0.55;;;;;;;;;;5091523;28;20418;-82
2023/12/22 06:03:16;;;;;;;2.55;0.75;;;;;;;;;;5091480;28;20557;-83
2023/12/22 06:05:45;;;;;;;1.27;0.65;;;;;;;;;;5095520;28;20097;-82
2023/12/22 06:08:11;;;;;;;2.50;0.70;;;;;;;;;;5092119;28;20063;-82
2023/12/22 06:10:38;;;;;;;0.50;0.50;;;;;;;;;;5087398;28;20044;-82
2023/12/22 06:13:05;;;;;;;1.77;0.65;;;;;;;;;;5087134;28;20049;-83
2023/12/22 06:15:32;;;;;;;2.08;0.57;;;;;;;;;;5096461;28;20044;-83
2023/12/22 06:17:59;;;;;;;1.77;0.73;;;;;;;;;;5097819;28;20047;-83
2023/12/22 06:20:26;;;;;;;1.13;0.70;;;;;;;;;;5092839;28;20050;-83
2023/12/22 06:22:54;;;;;;;2.30;0.65;;;;;;;;;;5091219;28;20112;-84
2023/12/22 06:25:21;;;;;;;0.73;0.68;;;;;;;;;;5091916;28;20053;-83
2023/12/22 06:27:47;;;;;;;2.75;0.88;;;;;;;;;;5094825;28;20051;-82
2023/12/22 06:30:14;;;;;;;1.08;0.80;;;;;;;;;;5086692;28;20048;-81
2023/12/22 06:32:41;;;;;;;1.08;0.55;;;;;;;;;;5089095;28;20493;-83
2023/12/22 06:35:10;;;;;;;1.05;0.75;;;;;;;;;;5084998;28;20471;-81
2023/12/22 06:37:37;;;;;;;1.27;0.55;;;;;;;;;;5095326;28;20122;-83
2023/12/22 06:40:06;;;;;;;0.95;0.65;;;;;;;;;;5095764;28;20048;-81
2023/12/22 06:42:33;;;;;;;1.50;0.60;;;;;;;;;;5094232;28;20052;-82
2023/12/22 06:45:00;;;;;;;2.75;0.65;;;;;;;;;;5086526;28;20044;-82
2023/12/22 06:47:27;;;;;;;2.10;0.65;;;;;;;;;;5087568;28;20107;-82
2023/12/22 06:49:54;;;;;;;3.83;1.02;;;;;;;;;;5084231;28;20056;-81
2023/12/22 06:52:21;;;;;;;3.78;1.30;;;;;;;;;;5087199;28;20055;-81
2023/12/22 06:54:48;;;;;;;3.63;1.23;;;;;;;;;;5089396;28;20063;-83
2023/12/22 06:57:17;;;;;;;3.08;1.20;;;;;;;;;;5090983;28;20488;-83
2023/12/22 06:59:44;;;;;;;3.95;1.20;;;;;;;;;;5086445;28;20050;-82
2023/12/22 07:02:10;;;;;;;4.43;1.10;;;;;;;;;;5090237;28;20554;-83
2023/12/22 07:04:37;;;;;;;5.03;1.02;;;;;;;;;;5089806;28;20055;-82
2023/12/22 07:07:04;;;;;;;2.95;1.10;;;;;;;;;;5091359;28;20052;-83
2023/12/22 07:09:34;;;;;;;4.05;1.40;;;;;;;;;;5082518;28;20048;-84
2023/12/22 07:12:03;;;;;;;6.05;1.60;;;;;;;;;;5086177;28;20097;-82
2023/12/22 07:14:31;;;;;;;9.73;2.45;;;;;;;;;;5078638;28;20048;-82
2023/12/22 07:17:01;;;;;;;6.72;1.80;;;;;;;;;;5086966;28;20515;-82
2023/12/22 07:19:27;;;;;;;5.97;1.90;;;;;;;;;;5086675;28;20082;-83
2023/12/22 07:21:54;;;;;;;7.97;1.75;;;;;;;;;;5090785;28;21484;-82
2023/12/22 07:24:20;;;;;;;5.72;1.58;;;;;;;;;;5086782;28;20076;-82
2023/12/22 07:26:47;;;;;;;7.38;1.95;;;;;;;;;;5088089;28;20075;-83
2023/12/22 07:29:15;;;;;;;5.88;1.88;;;;;;;;;;5086942;28;20117;-82
2023/12/22 07:31:43;;;;;;;7.78;2.22;;;;;;;;;;5084597;28;20109;-82
2023/12/22 07:34:09;;;;;;;14.32;3.03;;;;;;;;;;5088740;28;20083;-82
2023/12/22 07:36:36;;;;;;;9.45;1.98;;;;;;;;;;5085131;28;20087;-82
2023/12/22 07:39:03;;;;;;;13.27;2.08;;;;;;;;;;5083339;28;20108;-81
2023/12/22 07:41:29;;;;;;;10.05;2.58;;;;;;;;;;5091803;28;20052;-79
2023/12/22 07:43:56;;;;;;;10.85;2.53;;;;;;;;;;5088725;28;20404;-82
2023/12/22 07:46:23;;;;;;;9.90;2.22;;;;;;;;;;5087244;28;20519;-82
2023/12/22 07:48:51;;;;;;;14.15;2.58;;;;;;;;;;5090122;28;20047;-83
2023/12/22 07:51:18;;;;;;;10.40;2.40;;;;;;;;;;5078845;28;20131;-81
2023/12/22 07:53:45;;;;;;;13.48;3.20;;;;;;;;;;5096589;28;20048;-81
2023/12/22 07:56:12;;;;;;;14.82;2.30;;;;;;;;;;5098020;28;20040;-81
2023/12/22 07:58:39;;;;;;;11.48;2.75;;;;;;;;;;5088079;28;20066;-82
2023/12/22 08:01:06;;;;;;;10.10;2.78;;;;;;;;;;5080890;28;20080;-81
2023/12/22 08:03:33;;;;;;;8.88;2.13;;;;;;;;;;5089504;28;20059;-83
2023/12/22 08:06:01;;;;;;;7.93;2.08;;;;;;;;;;5093338;28;20080;-82
2023/12/22 08:08:28;;;;;;;10.77;2.65;;;;;;;;;;5093856;28;20052;-83
2023/12/22 08:10:55;;;;;;;11.80;3.05;;;;;;;;;;5091981;28;20136;-83
2023/12/22 08:13:21;;;;;;;13.75;3.33;;;;;;;;;;5092553;28;20091;-81
2023/12/22 08:15:48;;;;;;;13.50;3.33;;;;;;;;;;5082705;28;20071;-80
2023/12/22 08:18:15;;;;;;;10.57;2.90;;;;;;;;;;5092732;28;20040;-83
2023/12/22 08:20:42;;;;;;;14.85;2.75;;;;;;;;;;5092628;28;20044;-82
2023/12/22 08:23:12;;;;;;;13.48;2.47;;;;;;;;;;5090614;28;20072;-82
2023/12/22 08:25:41;;;;;;;19.75;3.95;;;;;;;;;;5092601;28;20044;-83
2023/12/22 08:28:07;;;;;;;10.57;2.58;;;;;;;;;;5085063;28;20048;-82
2023/12/22 08:30:34;;;;;;;11.43;2.50;;;;;;;;;;5090031;28;20048;-81
2023/12/22 08:33:01;;;;;;;11.82;2.80;;;;;;;;;;5093408;28;20102;-83
2023/12/22 08:35:28;;;;;;;16.17;3.05;;;;;;;;;;5094181;28;20040;-82
2023/12/22 08:37:54;;;;;;;10.75;3.30;;;;;;;;;;5089655;28;20044;-82
2023/12/22 08:40:25;;;;;;;13.23;4.18;;;;;;;;;;5087878;28;20070;-83
2023/12/22 08:42:54;;;;;;;12.95;3.10;;;;;;;;;;5084222;28;20074;-81
2023/12/22 08:45:21;;;;;;;16.80;4.13;;;;;;;;;;5079649;28;20522;-83
2023/12/22 08:47:47;;;;;;;13.30;2.55;;;;;;;;;;5092761;28;20040;-83
2023/12/22 08:50:14;;;;;;;11.93;2.70;;;;;;;;;;5085686;28;20139;-79
2023/12/22 08:52:41;;;;;;;9.02;2.60;;;;;;;;;;5089124;28;20127;-79
2023/12/22 08:55:08;;;;;;;13.52;3.30;;;;;;;;;;5088337;28;20040;-79
2023/12/22 08:57:36;;;;;;;15.45;3.00;;;;;;;;;;5095022;28;20075;-78
2023/12/22 09:00:04;;;;;;;9.27;2.40;;;;;;;;;;5087359;28;20058;-78
2023/12/22 09:02:30;;;;;;;12.82;2.90;;;;;;;;;;5083000;28;20409;-79
2023/12/22 09:04:57;;;;;;;12.63;2.65;;;;;;;;;;5088656;28;20083;-79
2023/12/22 09:07:24;;;;;;;13.40;2.60;;;;;;;;;;5087412;28;20091;-79
2023/12/22 09:09:51;;;;;;;11.65;2.80;;;;;;;;;;5086421;28;20074;-78
2023/12/22 09:12:17;;;;;;;15.23;2.85;;;;;;;;;;5086780;28;20099;-79
2023/12/22 09:14:45;;;;;;;12.88;3.45;;;;;;;;;;5092928;28;20538;-80
2023/12/22 09:17:12;;;;;;;13.57;3.80;;;;;;;;;;5088308;28;20048;-79
2023/12/22 09:19:39;;;;;;;12.13;2.95;;;;;;;;;;5086256;28;20052;-79
2023/12/22 09:22:05;;;;;;;13.95;2.78;;;;;;;;;;5083066;28;20060;-79
2023/12/22 09:24:32;;;;;;;8.10;2.10;;;;;;;;;;5090675;28;20131;-79
2023/12/22 09:27:02;;;;;;;11.43;2.65;;;;;;;;;;5091696;28;20041;-79
2023/12/22 09:29:29;;;;;;;10.27;2.45;;;;;;;;;;5091926;28;20052;-80
2023/12/22 09:31:57;;;;;;;10.07;2.55;;;;;;;;;;5091019;28;20135;-79
2023/12/22 09:34:27;;;;;;;10.65;3.20;;;;;;;;;;5090261;28;20063;-79
2023/12/22 09:36:53;;;;;;;9.85;2.40;;;;;;;;;;5086698;28;20088;-77
2023/12/22 09:39:20;;;;;;;6.85;2.42;;;;;;;;;;5088116;28;20087;-79
2023/12/22 09:41:50;;;;;;;10.68;2.38;;;;;;;;;;5085928;28;20109;-80
2023/12/22 09:44:20;;;;;;;11.23;3.08;;;;;;;;;;5088629;28;20044;-79
2023/12/22 09:46:48;;;;;;;11.45;2.47;;;;;;;;;;5085079;28;20132;-80
2023/12/22 09:49:17;;;;;;;10.75;2.28;;;;;;;;;;5085237;28;20076;-79
2023/12/22 09:51:45;;;;;;;10.20;2.60;;;;;;;;;;5086880;28;20520;-78
2023/12/22 09:54:12;;;;;;;8.40;2.45;;;;;;;;;;5094887;28;20101;-79
2023/12/22 09:56:42;;;;;;;12.73;2.60;;;;;;;;;;5087718;28;20094;-80
2023/12/22 09:59:12;;;;;;;12.63;3.47;;;;;;;;;;5088807;28;20106;-81
2023/12/22 10:01:41;;;;;;;11.15;3.60;;;;;;;;;;5088045;28;20040;-82
2023/12/22 10:04:07;;;;;;;8.30;3.03;;;;;;;;;;5088024;28;20076;-81
2023/12/22 10:06:36;;;;;;;9.65;2.95;;;;;;;;;;5088826;28;20052;-81
2023/12/22 10:09:05;;;;;;;7.53;2.35;;;;;;;;;;5088818;28;20055;-81
2023/12/22 10:11:33;;;;;;;10.82;2.60;;;;;;;;;;5088619;28;20132;-81
2023/12/22 10:14:02;;;;;;;7.18;1.77;;;;;;;;;;5096305;28;20079;-81
2023/12/22 10:16:29;;;;;;;9.38;2.10;;;;;;;;;;5084794;28;20100;-81
2023/12/22 10:18:56;;;;;;;9.98;2.55;;;;;;;;;;5089082;28;20044;-81
2023/12/22 10:21:23;;;;;;;6.38;2.25;;;;;;;;;;5092207;28;20047;-81
2023/12/22 10:23:52;;;;;;;10.35;2.70;;;;;;;;;;5085464;28;20098;-80
2023/12/22 10:26:19;;;;;;;5.88;1.92;;;;;;;;;;5092701;28;20108;-80
2023/12/22 10:28:48;;;;;;;8.10;2.25;;;;;;;;;;5091175;28;20048;-80
2023/12/22 10:31:14;;;;;;;8.55;1.67;;;;;;;;;;5094598;28;20546;-82
2023/12/22 10:33:41;;;;;;;6.90;1.73;;;;;;;;;;5090764;28;20473;-81
2023/12/22 10:36:09;;;;;;;5.82;1.83;;;;;;;;;;5092410;28;20561;-80
2023/12/22 10:38:36;;;;;;;8.38;2.42;;;;;;;;;;5091029;28;20412;-81
2023/12/22 10:41:06;;;;;;;5.80;1.90;;;;;;;;;;5088638;28;20063;-80
2023/12/22 10:43:38;;;;;;;10.50;2.47;;;;;;;;;;5079941;28;20479;-81
2023/12/22 10:46:05;;;;;;;5.07;1.73;;;;;;;;;;5086266;28;20048;-81
2023/12/22 10:48:32;;;;;;;3.05;1.33;;;;;;;;;;5092232;28;20044;-81
2023/12/22 10:50:59;;;;;;;2.65;1.23;;;;;;;;;;5095721;28;20044;-81
2023/12/22 10:53:26;;;;;;;4.38;1.70;;;;;;;;;;5092573;28;20062;-80
2023/12/22 10:55:53;;;;;;;4.50;1.50;;;;;;;;;;5097364;28;20507;-80
2023/12/22 10:58:22;;;;;;;4.50;1.60;;;;;;;;;;5092179;28;20044;-80
2023/12/22 11:00:51;;;;;;;3.50;1.10;;;;;;;;;;5093746;28;20079;-82
2023/12/22 11:03:18;;;;;;;4.28;1.40;;;;;;;;;;5089994;28;20059;-80
2023/12/22 11:05:47;;;;;;;4.68;1.27;;;;;;;;;;5088988;28;20139;-81
2023/12/22 11:08:15;;;;;;;3.35;1.10;;;;;;;;;;5092104;28;20083;-80
2023/12/22 11:10:45;;;;;;;3.22;1.10;;;;;;;;;;5087553;28;20100;-80
2023/12/22 11:13:13;;;;;;;5.68;1.63;;;;;;;;;;5087195;28;20568;-80
2023/12/22 11:15:43;;;;;;;3.10;0.95;;;;;;;;;;5088667;28;20048;-80
2023/12/22 11:18:11;;;;;;;4.32;1.40;;;;;;;;;;5081294;28;20051;-81
2023/12/22 11:20:39;;;;;;;2.33;1.30;;;;;;;;;;5092161;28;20491;-81
2023/12/22 11:23:07;;;;;;;2.88;1.23;;;;;;;;;;5093110;28;20083;-82
2023/12/22 11:25:35;;;;;;;2.08;0.90;;;;;;;;;;5093107;28;20086;-81
2023/12/22 11:28:06;;;;;;;2.65;1.25;;;;;;;;;;5088823;28;20047;-81
2023/12/22 11:30:33;;;;;;;3.55;1.10;;;;;;;;;;5085348;28;20059;-82
2023/12/22 11:33:02;;;;;;;3.70;1.30;;;;;;;;;;5082644;28;20048;-80
2023/12/22 11:35:30;;;;;;;2.97;1.85;;;;;;;;;;5095763;28;20117;-82
2023/12/22 11:38:00;;;;;;;2.53;1.20;;;;;;;;;;5087169;28;20048;-82
2023/12/22 11:40:27;;;;;;;1.80;1.17;;;;;;;;;;5091634;28;20044;-82
2023/12/22 11:42:54;;;;;;;2.88;1.00;;;;;;;;;;5088737;28;20490;-80
2023/12/22 11:45:22;;;;;;;1.50;1.10;;;;;;;;;;5087283;28;20632;-80
2023/12/22 11:47:49;;;;;;;1.33;0.90;;;;;;;;;;5091718;28;20494;-81
2023/12/22 11:50:29;;;;;;;1.75;1.00;;;;;;;;;;5091634;28;20051;-80
2023/12/22 11:52:56;;;;;;;1.40;0.93;;;;;;;;;;5091212;28;20143;-81
2023/12/22 11:55:56;;;;;;;3.13;1.20;;;;;;;;;;5086983;28;20040;-82
2023/12/22 11:58:34;;;;;;;1.98;0.85;;;;;;;;;;5094656;28;20101;-82
2023/12/22 12:01:03;;;;;;;2.00;0.98;;;;;;;;;;5084594;28;20068;-80
2023/12/22 12:03:31;;;;;;;3.45;1.10;;;;;;;;;;5086694;28;20048;-82
2023/12/22 12:06:15;;;;;;;1.85;1.00;;;;;;;;;;5096558;28;20087;-81
2023/12/22 12:08:42;;;;;;;1.30;0.85;;;;;;;;;;5090921;28;20082;-82
2023/12/22 12:11:09;;;;;;;4.03;1.90;;;;;;;;;;5091774;28;20052;-82
2023/12/22 12:13:42;;;;;;;1.90;1.58;;;;;;;;;;5089284;28;20526;-82
2023/12/22 12:16:09;;;;;;;2.88;1.20;;;;;;;;;;5095518;28;20044;-82
2023/12/22 12:18:36;;;;;;;1.85;1.30;;;;;;;;;;5090296;28;20115;-82
2023/12/22 12:21:02;;;;;;;1.30;1.00;;;;;;;;;;5094425;28;20068;-81
2023/12/22 12:23:31;;;;;;;1.02;0.90;;;;;;;;;;5093885;28;20087;-82
2023/12/22 12:25:58;;;;;;;1.65;1.30;;;;;;;;;;5092702;28;20048;-82
2023/12/22 12:28:30;;;;;;;2.25;1.25;;;;;;;;;;5094059;28;20052;-82
2023/12/22 12:31:01;;;;;;;1.93;1.20;;;;;;;;;;5090987;28;20045;-82
2023/12/22 12:33:28;;;;;;;3.42;1.08;;;;;;;;;;5098292;28;20048;-82
2023/12/22 12:35:57;;;;;;;2.88;1.10;;;;;;;;;;5094168;28;20071;-81
2023/12/22 12:38:37;;;;;;;2.25;1.20;;;;;;;;;;5099267;28;20048;-82
2023/12/22 12:41:06;;;;;;;1.52;1.00;;;;;;;;;;5092297;28;20152;-82
2023/12/22 12:43:33;;;;;;;4.40;1.40;;;;;;;;;;5087967;28;20100;-82
2023/12/22 12:46:04;;;;;;;2.13;1.20;;;;;;;;;;5091539;28;20082;-82
2023/12/22 12:48:31;;;;;;;3.53;1.38;;;;;;;;;;5090653;28;20324;-82
2023/12/22 12:51:03;;;;;;;3.15;1.88;;;;;;;;;;5090965;28;20139;-81
2023/12/22 12:53:31;;;;;;;2.55;0.90;;;;;;;;;;5095767;28;20072;-82
2023/12/22 12:55:58;;;;;;;2.13;1.10;;;;;;;;;;5095797;28;20080;-82
2023/12/22 12:58:30;;;;;;;1.40;0.90;;;;;;;;;;5092417;28;20040;-82
2023/12/22 13:01:06;;;;;;;2.38;1.33;;;;;;;;;;5093230;28;20087;-82
2023/12/22 13:03:33;;;;;;;2.92;1.67;;;;;;;;;;5087136;28;20079;-82
2023/12/22 13:06:07;;;;;;;3.30;1.67;;;;;;;;;;5099834;28;20055;-82
2023/12/22 13:08:34;;;;;;;2.20;1.92;;;;;;;;;;5088528;28;20056;-82
2023/12/22 13:11:02;;;;;;;1.98;1.70;;;;;;;;;;5095791;28;20048;-82
2023/12/22 13:13:30;;;;;;;5.25;3.40;;;;;;;;;;5094554;28;20055;-82
2023/12/22 13:15:56;;;;;;;4.53;2.45;;;;;;;;;;5088035;28;20071;-82
2023/12/22 13:18:23;;;;;;;5.03;3.65;;;;;;;;;;5090452;28;20445;-82
2023/12/22 13:20:50;;;;;;;8.02;4.63;;;;;;;;;;5090186;28;20044;-81
2023/12/22 13:23:19;;;;;;;6.18;3.20;;;;;;;;;;5094788;28;20052;-82
2023/12/22 13:25:46;;;;;;;2.67;1.50;;;;;;;;;;5092063;28;20488;-82
2023/12/22 13:28:13;;;;;;;3.63;2.17;;;;;;;;;;5091712;28;20433;-82
2023/12/22 13:30:41;;;;;;;2.65;1.92;;;;;;;;;;5090511;28;20074;-81
2023/12/22 13:33:08;;;;;;;2.78;1.33;;;;;;;;;;5091717;28;20052;-82
2023/12/22 13:35:36;;;;;;;2.10;1.40;;;;;;;;;;5094649;28;20048;-82
2023/12/22 13:38:03;;;;;;;1.25;1.15;;;;;;;;;;5090278;28;20596;-82
2023/12/22 13:40:30;;;;;;;3.00;1.90;;;;;;;;;;5099367;28;20147;-82
2023/12/22 13:42:58;;;;;;;2.35;1.55;;;;;;;;;;5090796;28;20084;-80
2023/12/22 13:45:25;;;;;;;3.83;3.42;;;;;;;;;;5097203;28;20427;-81
2023/12/22 13:47:53;;;;;;;2.97;2.20;;;;;;;;;;5092326;28;20526;-82
2023/12/22 13:50:22;;;;;;;3.22;1.60;;;;;;;;;;5098734;28;20575;-82
2023/12/22 13:52:50;;;;;;;1.73;1.10;;;;;;;;;;5092654;28;20044;-82
2023/12/22 13:55:18;;;;;;;3.90;1.55;;;;;;;;;;5095181;28;20052;-81
2023/12/22 13:57:45;;;;;;;3.55;1.50;;;;;;;;;;5096421;28;20044;-83
2023/12/22 14:00:29;;;;;;;1.75;1.48;;;;;;;;;;5093273;28;20098;-81
2023/12/22 14:02:57;;;;;;;8.20;4.88;;;;;;;;;;5085266;28;20084;-81
2023/12/22 14:05:24;;;;;;;3.03;1.48;;;;;;;;;;5090360;28;20508;-82
2023/12/22 14:07:51;;;;;;;2.83;1.88;;;;;;;;;;5091629;28;20071;-81
2023/12/22 14:10:18;;;;;;;5.72;3.53;;;;;;;;;;5091197;28;20087;-81
2023/12/22 14:12:44;;;;;;;2.38;2.10;;;;;;;;;;5092576;28;20488;-81
2023/12/22 14:15:12;;;;;;;2.38;1.50;;;;;;;;;;5089859;28;20286;-81
2023/12/22 14:17:39;;;;;;;3.15;1.73;;;;;;;;;;5090113;28;20097;-81
2023/12/22 14:20:09;;;;;;;1.92;1.10;;;;;;;;;;5098128;28;20101;-80
2023/12/22 14:22:36;;;;;;;1.58;0.90;;;;;;;;;;5088260;28;20119;-81
2023/12/22 14:25:04;;;;;;;2.00;1.15;;;;;;;;;;5085087;28;20128;-81
2023/12/22 14:27:31;;;;;;;3.55;2.72;;;;;;;;;;5088635;28;20044;-81
2023/12/22 14:29:57;;;;;;;2.33;1.40;;;;;;;;;;5088913;28;20052;-82
2023/12/22 14:32:24;;;;;;;3.55;1.20;;;;;;;;;;5090966;28;20117;-82
2023/12/22 14:34:50;;;;;;;2.30;1.73;;;;;;;;;;5093796;28;20067;-82
2023/12/22 14:37:19;;;;;;;2.75;2.13;;;;;;;;;;5102103;28;20074;-82
2023/12/22 14:39:46;;;;;;;2.22;1.30;;;;;;;;;;5103895;28;20076;-82
2023/12/22 14:42:13;;;;;;;2.30;1.13;;;;;;;;;;5098652;28;20048;-82
2023/12/22 14:44:39;;;;;;;1.52;1.10;;;;;;;;;;5101654;28;20040;-82